Impacts TAF Board
For situational awareness. Not to be used for flight planning purposes.
IDs:

KPVW - Plainview/Hale Cnty, TX, US

Issued at 1720 UTC 02 Aug 2021
Updated at 2222 UTC 02 Aug 2021
Potential Impact None Slight Moderate High
Time2215Z 02/23Z 03/00Z 03/01Z 03/02Z 03/03Z 03/04Z 03/05Z 03/06Z 03/07Z 03/08Z 03/09Z 03/10Z 03/11Z>>
Type OBS PRVL PRVL PRVL PRVL PRVL PRVL PRVL PRVL PRVL PRVL PRVL PRVL PRVL
VIS 10 >6 >6 >6 >6 >6 >6 >6 >6 >6 >6 >6 >6 >6
CIG -- -- -- -- -- -- -- -- -- -- -- -- -- --
Cover CLR SCT SCT SCT SCT SCT SCT SCT SCT SCT SCT SCT SCT SCT
FltCat VFR VFR VFR VFR VFR VFR VFR VFR VFR VFR VFR VFR VFR VFR
WX -- -- -- -- -- -- -- -- -- -- -- -- -- --
WDir 80 50 50 50 50 50 50 50 50 50 50 50 50 50
WSpd 7 8 8 8 8 8 8 8 8 8 8 8 8 8
WGst -- -- -- -- -- -- -- -- -- -- -- -- -- --
Raw TAF
KPVW 021720Z 0218/0318 05008KT P6SM SCT040 SCT250

Raw METAR
KPVW 022215Z AUTO 08007KT 10SM CLR 26/13 A3018 RMK AO2 T02630125
KPVW 022155Z AUTO 09003KT 10SM SCT065 26/12 A3019 RMK AO2 T02620116
KPVW 022135Z AUTO 09006KT 10SM SCT065 26/13 A3019 RMK AO2 T02620129
KPVW 022115Z AUTO 07010KT 10SM SCT060 26/12 A3020 RMK AO2 LTG DSNT W T02610119
KPVW 022055Z AUTO 04010KT 10SM BKN060 26/13 A3021 RMK AO2 T02640125
KPVW 022035Z AUTO 08004KT 10SM SCT060 26/13 A3022 RMK AO2 T02630134
KPVW 022015Z AUTO 07006KT 10SM CLR 26/12 A3022 RMK AO2 T02580122
KPVW 021955Z AUTO 04007KT 10SM CLR 26/12 A3023 RMK AO2 T02580120
KPVW 021935Z AUTO 05007G15KT 10SM CLR 25/12 A3024 RMK AO2 T02540124

METAR Board
For situational awareness. Not to be used for flight planning purposes.